Hercílio Luz International Airport
SBFL : now visible

Airfield :











YOU CAN JOIN US ON...

 
LOGIN :

Register | Disclaimer

   EN    FR    IT 

 









Legend :    VFR   Marginal VFR   IFR   Intensive IFR   Very Intensive IFR
Visi :
Ceiling :
>= 8 km
>= 3000ft
5 to 8 km
1000 to 3000 ft
1500m to 5 km
500 to 1000 ft
800 to 1500m
200 to 500 ft
< 800m
< 200 ft
Symbols :   Thunderstorms  Fog  Heavy snow  Heavy precipitations  Wind > 20 kt







- Airport Elevation : 16 ft
- IATA code : FLN


SBFL - Hercílio Luz International

CURRENT METAR :
  • 210700Z 00000KT 9999 SCT017 23/22 Q1012

EXPIRED METARs :
  • 210600Z 00000KT 9999 SCT017 23/22 Q1012
  • 210500Z 27002KT 9999 SCT017 24/23 Q1013

TAF TAF SBFL
Valid from the 21 at 06:00 until the 22 at 06:00 UTC


210200Z 2106/2206 23007KT 9999 SCT020 TN22/2108Z TX28/2118Z
PROB40 2108/2110 BKN012
BECMG 2112/2114 14007KT SCT030
PROB40
TEMPO 2117/21 19 VCTS BKN030 FEW040CB
BECMG 2200/2202 BKN020 RMK PDJ
SBCW FIR / South America



MET'MAP, your aeronautical weather chart ! - Copyright ORBIFLY December 2007 - Disclaimer

ORBIFLY MET'MAP TEAM :

Programming & Development : Alexandra Zaïnal
Concept & Development : Baudouin d'Aumeries
Co-Development & Prog : Marc-Olivier Méhu
Technical & hardware support : Manuel Goepfert

Contact : metmap@orbifly.com




SOURCES & CREDITS :

   NOAA       Earth
Advisory